Terminal Aerodrome Forecast
Issued by NWS North Platte, NE

Home | Current Version | Previous Version | Text Only | Print | Product List | Glossary Off
Versions: 1 2 3 4 5 6 7 8 9 10 11 12 13 14 15 16 17 18

000
FTUS43 KLBF 260500
TAFVTN
TAF
KVTN 260520Z 2606/2706 30012G19KT P6SM VCSH BKN035 OVC070
     FM260700 33022G31KT P6SM OVC025
     FM261700 33014G22KT P6SM SCT025
     FM261900 34011KT P6SM BKN150
     FM262300 VRB05KT P6SM BKN070=

USA.gov is the U.S. government's official web portal to all federal, state and local government web resources and services.